createdAt,value
2022-08-26T07:03:39.589Z,100601.22
2022-08-26T07:06:47.715Z,100605.14
2022-08-26T07:09:55.596Z,100597.59
2022-08-26T07:13:06.440Z,100602.13
2022-08-26T07:16:14.670Z,100606.95
2022-08-26T07:19:31.031Z,100596.33
2022-08-26T07:22:29.515Z,100592.44
2022-08-26T07:25:36.594Z,100598.39
2022-08-26T07:28:44.318Z,100606.06
2022-08-26T07:31:52.016Z,100598.23
2022-08-26T07:34:59.019Z,100592.10
2022-08-26T07:38:04.815Z,100590.77
2022-08-26T07:41:15.959Z,100581.23
2022-08-26T07:44:22.206Z,100579.56
2022-08-26T07:47:29.117Z,100581.81
2022-08-26T07:50:49.309Z,100573.13
2022-08-26T07:53:48.016Z,100566.10
2022-08-26T07:56:58.220Z,100572.55
2022-08-26T08:00:05.128Z,100575.90
2022-08-26T08:03:11.852Z,100570.56
2022-08-26T08:06:17.821Z,100567.20
2022-08-26T08:09:25.957Z,100568.08
2022-08-26T08:12:33.548Z,100560.83
2022-08-26T08:15:44.763Z,100565.05
2022-08-26T08:18:51.785Z,100564.00
2022-08-26T08:22:17.792Z,100564.88
2022-08-26T08:25:16.800Z,100561.53
2022-08-26T08:28:23.075Z,100562.39
2022-08-26T08:31:58.030Z,100568.30
2022-08-26T08:34:47.217Z,100559.05
2022-08-26T08:37:53.782Z,100569.73
2022-08-26T08:41:00.049Z,100548.92
2022-08-26T08:44:10.070Z,100557.06
2022-08-26T08:47:19.126Z,100547.47
2022-08-26T08:50:44.384Z,100548.59
2022-08-26T08:53:54.621Z,100547.20
2022-08-26T08:57:10.261Z,100543.50
2022-08-26T09:00:30.285Z,100541.81
2022-08-26T09:03:42.148Z,100540.09
2022-08-26T09:06:47.805Z,100543.77
2022-08-26T09:10:11.256Z,100533.61
2022-08-26T09:13:27.212Z,100524.79
2022-08-26T09:16:59.205Z,100536.30
2022-08-26T09:20:30.824Z,100524.37
2022-08-26T09:23:37.686Z,100517.56
2022-08-26T09:26:58.858Z,100524.84
2022-08-26T09:30:04.152Z,100525.70
2022-08-26T09:33:26.610Z,100525.73
2022-08-26T09:36:51.980Z,100522.02
2022-08-26T09:39:58.847Z,100522.82
2022-08-26T09:43:29.380Z,100521.41
2022-08-26T09:46:40.943Z,100515.21
2022-08-26T09:49:54.371Z,100522.94
2022-08-26T09:53:01.313Z,100519.61
2022-08-26T09:56:27.511Z,100521.36
2022-08-26T09:59:45.375Z,100516.86
2022-08-26T10:02:56.041Z,100525.28
2022-08-26T10:06:20.920Z,100512.06
2022-08-26T10:09:30.188Z,100506.64
2022-08-26T10:12:41.601Z,100496.40
2022-08-26T10:16:36.631Z,100502.83
2022-08-26T10:20:01.751Z,100492.63
2022-08-26T10:23:29.766Z,100489.70
2022-08-26T10:26:56.009Z,100481.95
2022-08-26T10:30:04.970Z,100467.28
2022-08-26T10:33:27.223Z,100463.58
2022-08-26T10:37:15.197Z,100457.84
2022-08-26T10:40:26.115Z,100454.33
2022-08-26T10:43:45.472Z,100453.62
2022-08-26T10:46:59.825Z,100452.30
2022-08-26T10:50:08.369Z,100455.52
2022-08-26T10:53:38.000Z,100446.22
2022-08-26T10:57:03.519Z,100447.22
2022-08-26T11:00:54.220Z,100445.84
2022-08-26T11:04:12.203Z,100444.06
2022-08-26T11:07:50.547Z,100440.80
2022-08-26T11:11:09.446Z,100443.30
2022-08-26T11:14:18.652Z,100439.75
2022-08-26T11:17:25.396Z,100444.63
2022-08-26T11:20:47.148Z,100438.94
2022-08-26T11:23:57.517Z,100435.69
2022-08-26T11:27:04.916Z,100426.52
2022-08-26T11:30:19.102Z,100435.37
2022-08-26T11:33:26.156Z,100426.80
2022-08-26T11:37:02.649Z,100432.50
2022-08-26T11:40:12.676Z,100434.50
2022-08-26T11:43:31.188Z,100429.53
2022-08-26T11:46:45.574Z,100428.38
2022-08-26T11:49:52.492Z,100429.09
2022-08-26T11:53:14.440Z,100430.83
2022-08-26T11:56:26.734Z,100422.69
2022-08-26T11:59:45.061Z,100415.22
2022-08-26T12:02:55.177Z,100423.83
2022-08-26T12:09:24.044Z,100411.43
2022-08-26T12:12:39.662Z,100412.17
2022-08-26T12:15:46.290Z,100413.02
2022-08-26T12:18:53.786Z,100412.14
2022-08-26T12:22:00.436Z,100404.95
2022-08-26T12:25:22.752Z,100411.92
2022-08-26T12:28:28.671Z,100395.42
2022-08-26T12:31:46.335Z,100411.56
2022-08-26T12:34:54.342Z,100406.05
2022-08-26T12:38:03.756Z,100404.80
2022-08-26T12:41:12.141Z,100403.45
2022-08-26T12:44:19.174Z,100406.61
2022-08-26T12:47:52.011Z,100403.24
2022-08-26T12:51:04.727Z,100403.70
2022-08-26T12:54:12.243Z,100407.67
2022-08-26T12:57:25.801Z,100412.67
2022-08-26T13:00:49.671Z,100410.16
2022-08-26T13:03:58.993Z,100409.30
2022-08-26T13:07:09.188Z,100418.73
2022-08-26T13:10:15.085Z,100402.95
2022-08-26T13:13:22.178Z,100420.75
2022-08-26T13:16:29.390Z,100417.80
2022-08-26T13:19:39.588Z,100416.55
2022-08-26T13:22:45.389Z,100417.61
2022-08-26T13:25:53.262Z,100412.01
2022-08-26T13:29:03.891Z,100414.21
2022-08-26T13:32:30.535Z,100418.40
2022-08-26T13:35:37.434Z,100414.47
2022-08-26T13:38:43.996Z,100412.80
2022-08-26T13:41:51.098Z,100421.29
2022-08-26T13:45:02.964Z,100427.11
2022-08-26T13:48:10.529Z,100430.88
2022-08-26T13:51:17.138Z,100429.20
2022-08-26T13:54:24.454Z,100441.39
2022-08-26T13:57:31.824Z,100441.22
2022-08-26T14:00:39.772Z,100443.06
2022-08-26T14:03:45.159Z,100437.31
2022-08-26T14:06:46.430Z,100437.69
2022-08-26T14:09:55.760Z,100438.13
2022-08-26T14:13:02.497Z,100431.67
2022-08-26T14:16:10.867Z,100437.65
2022-08-26T14:19:19.166Z,100433.46
2022-08-26T14:22:31.045Z,100422.41
2022-08-26T14:25:37.809Z,100438.50
2022-08-26T14:28:44.530Z,100439.63
2022-08-26T14:31:50.743Z,100439.91
2022-08-26T14:34:56.657Z,100447.05
2022-08-26T14:38:04.446Z,100442.62
2022-08-26T14:41:10.265Z,100450.80
2022-08-26T14:44:27.284Z,100448.58
2022-08-26T14:47:32.708Z,100451.20
2022-08-26T14:50:39.649Z,100444.18
2022-08-26T14:54:02.623Z,100446.51
2022-08-26T14:57:22.302Z,100441.72
2022-08-26T15:00:28.342Z,100436.98
2022-08-26T15:03:35.248Z,100445.02
2022-08-26T15:06:40.191Z,100449.59
2022-08-26T15:09:49.351Z,100449.59
2022-08-26T15:12:54.948Z,100452.18
2022-08-26T15:16:03.215Z,100444.40
2022-08-26T15:19:12.935Z,100445.61
2022-08-26T15:22:20.198Z,100441.73
2022-08-26T15:25:27.456Z,100448.27
2022-08-26T15:28:33.629Z,100442.77
2022-08-26T15:31:43.872Z,100442.03
2022-08-26T15:34:49.775Z,100437.03
2022-08-26T15:37:55.704Z,100435.40
2022-08-26T15:41:02.922Z,100443.08
2022-08-26T15:44:08.869Z,100437.80
2022-08-26T15:47:16.211Z,100442.69
2022-08-26T15:50:22.959Z,100443.89
2022-08-26T15:53:29.415Z,100438.02
2022-08-26T15:56:34.963Z,100442.00
2022-08-26T15:59:43.481Z,100449.41
2022-08-26T16:02:49.652Z,100445.81
2022-08-26T16:05:57.105Z,100448.69
2022-08-26T16:09:03.332Z,100451.52
2022-08-26T16:12:10.873Z,100442.83
2022-08-26T16:15:20.502Z,100436.67
2022-08-26T16:18:28.975Z,100445.42
2022-08-26T16:21:39.535Z,100433.37
2022-08-26T16:24:45.896Z,100433.33
2022-08-26T16:27:53.197Z,100435.34
2022-08-26T16:30:59.759Z,100441.27
2022-08-26T16:34:05.660Z,100432.54
2022-08-26T16:37:12.800Z,100444.03
2022-08-26T16:40:20.384Z,100438.11
2022-08-26T16:43:28.679Z,100435.02
2022-08-26T16:46:34.089Z,100429.92
2022-08-26T16:49:41.662Z,100425.38
2022-08-26T16:52:48.004Z,100422.84
2022-08-26T16:55:56.727Z,100430.33
2022-08-26T16:59:03.103Z,100431.14
2022-08-26T17:02:09.297Z,100426.91
2022-08-26T17:05:14.928Z,100421.23
2022-08-26T17:08:27.483Z,100420.63
2022-08-26T17:11:30.456Z,100416.94
2022-08-26T17:14:35.978Z,100418.86
2022-08-26T17:17:41.696Z,100419.09
2022-08-26T17:20:47.987Z,100421.28
2022-08-26T17:23:54.564Z,100415.95
2022-08-26T17:26:59.718Z,100414.23
2022-08-26T17:30:05.670Z,100419.80
2022-08-26T17:33:14.410Z,100413.30
2022-08-26T17:36:22.974Z,100414.42
2022-08-26T17:39:31.828Z,100412.41
2022-08-26T17:42:38.045Z,100406.48
2022-08-26T17:45:45.264Z,100418.50
2022-08-26T17:48:53.830Z,100413.70
2022-08-26T17:52:02.463Z,100417.90
2022-08-26T17:55:09.145Z,100411.41
2022-08-26T17:58:14.624Z,100420.93
2022-08-26T18:01:22.846Z,100417.55
2022-08-26T18:04:28.745Z,100421.19
2022-08-26T18:07:39.047Z,100419.20
2022-08-26T18:10:42.645Z,100409.13
2022-08-26T18:13:49.774Z,100413.33
2022-08-26T18:16:57.244Z,100423.09
2022-08-26T18:20:02.955Z,100416.36
2022-08-26T18:23:12.086Z,100410.67
2022-08-26T18:26:19.350Z,100409.00
2022-08-26T18:29:27.764Z,100408.41
2022-08-26T18:32:34.047Z,100404.16
2022-08-26T18:35:40.342Z,100404.11
2022-08-26T18:38:47.684Z,100408.02
2022-08-26T18:42:05.120Z,100407.66
2022-08-26T18:45:11.184Z,100411.03
2022-08-26T18:48:19.402Z,100405.38
2022-08-26T18:51:40.144Z,100408.72
2022-08-26T18:54:46.666Z,100405.86
2022-08-26T18:57:53.437Z,100406.92
2022-08-26T19:01:00.511Z,100399.33
2022-08-26T19:04:08.273Z,100399.28
2022-08-26T19:07:15.583Z,100397.02
2022-08-26T19:10:22.014Z,100397.00
2022-08-26T19:13:27.911Z,100386.03
2022-08-26T19:16:34.672Z,100389.95
2022-08-26T19:19:41.717Z,100391.61
2022-08-26T19:22:49.822Z,100388.23
2022-08-26T19:26:10.295Z,100382.36
2022-08-26T19:32:23.880Z,100385.77
2022-08-26T19:35:29.005Z,100381.88
2022-08-26T19:38:38.163Z,100391.96
2022-08-26T19:41:44.861Z,100397.02
2022-08-26T19:45:09.261Z,100403.73
2022-08-26T19:48:18.589Z,100406.27
2022-08-26T19:51:32.052Z,100407.66
2022-08-26T19:54:38.350Z,100411.28
2022-08-26T19:57:44.330Z,100408.48
2022-08-26T20:00:50.431Z,100410.73
2022-08-26T20:07:04.265Z,100408.27
2022-08-26T20:10:11.082Z,100405.48
2022-08-26T20:13:17.217Z,100404.94
2022-08-26T20:16:23.032Z,100410.81
2022-08-26T20:19:46.779Z,100407.75
2022-08-26T20:22:53.441Z,100409.14
2022-08-26T20:25:58.454Z,100406.66
2022-08-26T20:29:05.429Z,100400.20
2022-08-26T20:32:14.057Z,100413.66
2022-08-26T20:35:22.673Z,100403.31
2022-08-26T20:38:28.837Z,100403.59
2022-08-26T20:41:35.924Z,100398.00
2022-08-26T20:44:43.228Z,100398.55
2022-08-26T20:47:50.294Z,100404.14
2022-08-26T20:50:57.481Z,100397.14
2022-08-26T20:54:03.038Z,100404.41
2022-08-26T20:57:11.447Z,100395.42
2022-08-26T21:00:20.684Z,100405.22
2022-08-26T21:03:28.630Z,100398.80
2022-08-26T21:06:34.665Z,100398.73
2022-08-26T21:09:40.717Z,100393.41
2022-08-26T21:12:49.473Z,100390.02
2022-08-26T21:15:57.928Z,100383.56
2022-08-26T21:19:04.723Z,100386.34
2022-08-26T21:22:10.495Z,100374.83
2022-08-26T21:25:15.942Z,100376.98
2022-08-26T21:28:23.935Z,100376.98
2022-08-26T21:31:32.764Z,100366.88
2022-08-26T21:34:38.826Z,100363.48
2022-08-26T21:37:45.294Z,100364.61
2022-08-26T21:40:52.091Z,100370.16
2022-08-26T21:43:58.969Z,100373.22
2022-08-26T21:47:07.788Z,100376.33
2022-08-26T21:50:16.210Z,100379.12
2022-08-26T21:53:23.049Z,100371.81
2022-08-26T21:56:31.811Z,100376.02
2022-08-26T21:59:37.976Z,100367.62
2022-08-26T22:02:44.175Z,100374.92
2022-08-26T22:05:58.185Z,100369.02
2022-08-26T22:09:04.835Z,100361.48
2022-08-26T22:12:12.162Z,100360.09
2022-08-26T22:15:19.537Z,100353.09
2022-08-26T22:18:24.883Z,100355.63
2022-08-26T22:21:35.636Z,100351.98
2022-08-26T22:24:42.340Z,100348.92
2022-08-26T22:27:49.881Z,100349.23
2022-08-26T22:30:58.045Z,100352.30
2022-08-26T22:34:05.021Z,100353.17
2022-08-26T22:37:14.154Z,100350.38
2022-08-26T22:40:21.612Z,100342.84
2022-08-26T22:43:26.748Z,100346.18
2022-08-26T22:46:40.742Z,100345.36
2022-08-26T22:49:46.802Z,100345.31
2022-08-26T22:52:54.599Z,100346.13
2022-08-26T22:56:01.895Z,100343.86
2022-08-26T22:59:09.910Z,100343.03
2022-08-26T23:02:16.066Z,100344.97
2022-08-26T23:05:24.383Z,100335.17
2022-08-26T23:08:31.163Z,100331.79
2022-08-26T23:11:37.118Z,100334.54
2022-08-26T23:14:45.202Z,100317.20
2022-08-26T23:17:58.436Z,100309.58
2022-08-26T23:21:00.220Z,100309.55
2022-08-26T23:24:06.064Z,100298.90
2022-08-26T23:27:11.623Z,100298.00
2022-08-26T23:30:16.388Z,100293.27
2022-08-26T23:33:22.984Z,100286.27
2022-08-26T23:36:30.110Z,100296.65
2022-08-26T23:39:39.512Z,100286.34
2022-08-26T23:42:44.284Z,100285.80
2022-08-26T23:45:51.201Z,100285.00
2022-08-26T23:48:57.846Z,100294.80
2022-08-26T23:52:20.589Z,100309.08
2022-08-26T23:55:27.601Z,100306.83
2022-08-26T23:58:35.985Z,100299.25
